This is the latest recevied weather packets stored in our database for station/object KF4PPJ. If no packets are shown the sender has not sent any weather packets the latest 10 day(s).
| Time | Temp. | Humidity | Pressure | Rain* | Wind** | Luminosity | Snow |
|---|---|---|---|---|---|---|---|
| 1777476453 | 11.67° C | 75% | 1028.4 hPa | 0 mm | - | 47 W/m² | - |
| 1777475846 | 11.67° C | 75% | 1028.5 hPa | 0 mm | - | 46 W/m² | - |
| 1777474934 | 10.56° C | 79% | 1028.4 hPa | 0 mm | - | 40 W/m² | - |
| 1777474327 | 10° C | 82% | 1028.5 hPa | 0 mm | - | 37 W/m² | - |
| 1777473113 | 8.33° C | 92% | 1028.4 hPa | 0 mm | - | 33 W/m² | - |
| 1777472810 | 8.33° C | 93% | 1028.4 hPa | 0 mm | - | 32 W/m² | - |
| 1777471899 | 7.78° C | 95% | 1028.4 hPa | 0 mm | - | 28 W/m² | - |
| 1777471293 | 7.22° C | 95% | 1028.5 hPa | 0 mm | - | 25 W/m² | - |
| 1777470989 | 7.22° C | 95% | 1028.1 hPa | 0 mm | - | 24 W/m² | - |
| 1777468859 | 7.22° C | 94% | 1027.8 hPa | 0 mm | - | 10 W/m² | - |
| 1777468253 | 7.78° C | 94% | 1028.3 hPa | 0 mm | - | 7 W/m² | - |
| 1777465215 | 7.78° C | 95% | 1027.8 hPa | 0 mm | - | 0 W/m² | - |
| 1777464910 | 7.78° C | 95% | 1027.8 hPa | 0 mm | - | 0 W/m² | - |
| 1777462779 | 7.78° C | 95% | 1027.8 hPa | 0 mm | - | 0 W/m² | - |
| 1777462474 | 7.78° C | 95% | 1027.8 hPa | 0 mm | - | 0 W/m² | - |
| 1777462171 | 7.78° C | 95% | 1027.7 hPa | 0 mm | - | 0 W/m² | - |
| 1777461867 | 8.33° C | 95% | 1027.6 hPa | 0 mm | - | 0 W/m² | - |
| 1777461564 | 8.33° C | 95% | 1027.5 hPa | 0 mm | - | 0 W/m² | - |
| 1777461259 | 8.33° C | 95% | 1027.6 hPa | 0 mm | - | 0 W/m² | - |
| 1777460954 | 8.33° C | 95% | 1027.8 hPa | 0 mm | - | 0 W/m² | - |
| 1777460650 | 8.33° C | 95% | 1027.7 hPa | 0 mm | - | 0 W/m² | - |
| 1777460346 | 8.33° C | 95% | 1027.8 hPa | 0 mm | - | 0 W/m² | - |
| 1777460042 | 8.33° C | 95% | 1027.7 hPa | 0 mm | - | 0 W/m² | - |
| 1777459134 | 8.33° C | 95% | 1027.7 hPa | 0 mm | - | 0 W/m² | - |
| 1777458831 | 8.33° C | 95% | 1027.6 hPa | 0 mm | - | 0 W/m² | - |
* Rain latest hour (hover to see other rain measurements)
** Current wind speed in m/s (hover to see current wind gust speed)